Time;durP1;ratioP1;P1;durP2;ratioP2;P2;SDS_P1;SDS_P2;PMS_P1;PMS_P2;Temp;Humidity;BMP_temperature;BMP_pressure;BME280_temperature;BME280_humidity;BME280_pressure;Samples;Min_cycle;Max_cycle;Signal;HPM_P1;HPM_P2
2022/03/15 00:00:22;;;;;;;;;;;;;;;;;;5114019;28;20010;-77
2022/03/15 00:02:49;;;;;;;;;;;;;;;;;;5114496;28;19923;-76
2022/03/15 00:05:15;;;;;;;;;;;;;;;;;;5114117;28;20334;-76
2022/03/15 00:07:40;;;;;;;;;;;;;;;;;;5113843;28;19919;-76
2022/03/15 00:10:06;;;;;;;;;;;;;;;;;;5116086;28;19968;-76
2022/03/15 00:12:32;;;;;;;;;;;;;;;;;;5118076;28;19930;-76
2022/03/15 00:14:57;;;;;;;;;;;;;;;;;;5117145;28;19924;-76
2022/03/15 00:17:23;;;;;;;;;;;;;;;;;;5118321;28;20281;-76
2022/03/15 00:19:49;;;;;;;;;;;;;;;;;;5118142;28;19923;-77
2022/03/15 00:22:14;;;;;;;;;;;;;;;;;;5118394;28;20289;-76
2022/03/15 00:24:41;;;;;;;;;;;;;;;;;;5118087;28;20231;-76
2022/03/15 00:27:06;;;;;;;;;;;;;;;;;;5118052;28;19920;-76
2022/03/15 00:29:32;;;;;;;;;;;;;;;;;;5117723;28;20377;-76
2022/03/15 00:31:57;;;;;;;;;;;;;;;;;;5117856;28;20459;-76
2022/03/15 00:34:23;;;;;;;;;;;;;;;;;;5118013;28;19916;-76
2022/03/15 00:36:48;;;;;;;;;;;;;;;;;;5116768;28;19919;-76
2022/03/15 00:39:16;;;;;;;;;;;;;;;;;;5106646;28;19969;-76
2022/03/15 00:41:42;;;;;;;;;;;;;;;;;;5117204;28;20620;-76
2022/03/15 00:44:07;;;;;;;;;;;;;;;;;;5111396;28;19918;-76
2022/03/15 00:46:32;;;;;;;;;;;;;;;;;;5117404;28;19958;-76
2022/03/15 00:48:59;;;;;;;;;;;;;;;;;;5117516;28;19923;-76
2022/03/15 00:51:29;;;;;;;;;;;;;;;;;;5116177;28;19927;-76
2022/03/15 00:53:57;;;;;;;;;;;;;;;;;;5117402;28;19962;-76
2022/03/15 00:56:22;;;;;;;;;;;;;;;;;;5106311;28;19953;-76
2022/03/15 00:58:48;;;;;;;;;;;;;;;;;;5117137;28;19963;-76
2022/03/15 01:01:13;;;;;;;;;;;;;;;;;;5117050;28;19923;-76
2022/03/15 01:03:39;;;;;;;;;;;;;;;;;;5117580;28;19922;-76
2022/03/15 01:06:04;;;;;;;;;;;;;;;;;;5115821;28;19922;-76
2022/03/15 01:08:30;;;;;;;;;;;;;;;;;;5115916;28;19916;-76
2022/03/15 01:10:57;;;;;;;;;;;;;;;;;;5115796;28;19931;-76
2022/03/15 01:13:26;;;;;;;;;;;;;;;;;;5112055;28;20372;-76
2022/03/15 01:15:53;;;;;;;;;;;;;;;;;;5116933;28;19915;-76
2022/03/15 01:18:20;;;;;;;;;;;;;;;;;;5115597;28;19965;-76
2022/03/15 01:20:45;;;;;;;;;;;;;;;;;;5116602;28;19922;-76
2022/03/15 01:23:10;;;;;;;;;;;;;;;;;;5116525;27;20010;-76
2022/03/15 01:25:37;;;;;;;;;;;;;;;;;;5116823;27;19920;-76
2022/03/15 01:28:03;;;;;;;;;;;;;;;;;;5115794;28;19915;-76
2022/03/15 01:30:30;;;;;;;;;;;;;;;;;;5097872;28;19915;-76
2022/03/15 01:32:55;;;;;;;;;;;;;;;;;;5115840;28;20326;-76
2022/03/15 01:35:21;;;;;;;;;;;;;;;;;;5116820;28;20014;-76
2022/03/15 01:37:47;;;;;;;;;;;;;;;;;;5116518;28;19916;-76
2022/03/15 01:40:12;;;;;;;;;;;;;;;;;;5115164;28;19937;-76
2022/03/15 01:42:38;;;;;;;;;;;;;;;;;;5116629;28;19923;-76
2022/03/15 01:45:04;;;;;;;;;;;;;;;;;;5116606;28;20491;-76
2022/03/15 01:47:31;;;;;;;;;;;;;;;;;;5115069;28;19916;-76
2022/03/15 01:49:56;;;;;;;;;;;;;;;;;;5115322;28;19920;-76
2022/03/15 01:52:22;;;;;;;;;;;;;;;;;;5115200;28;19924;-76
2022/03/15 01:54:49;;;;;;;;;;;;;;;;;;5114723;28;19915;-76
2022/03/15 01:57:17;;;;;;;;;;;;;;;;;;5116417;28;20002;-76
2022/03/15 01:59:42;;;;;;;;;;;;;;;;;;5114395;28;19962;-76
2022/03/15 02:02:08;;;;;;;;;;;;;;;;;;5096945;28;20342;-76
2022/03/15 02:04:36;;;;;;;;;;;;;;;;;;5115589;28;19916;-76
2022/03/15 02:07:09;;;;;;;;;;;;;;;;;;5115814;28;19959;-76
2022/03/15 02:09:34;;;;;;;;;;;;;;;;;;5114982;28;20384;-76
2022/03/15 02:12:00;;;;;;;;;;;;;;;;;;5115895;28;19920;-76
2022/03/15 02:14:28;;;;;;;;;;;;;;;;;;5113514;28;22267;-76
2022/03/15 02:16:53;;;;;;;;;;;;;;;;;;5115496;28;19916;-76
2022/03/15 02:19:19;;;;;;;;;;;;;;;;;;5114750;28;19916;-76
2022/03/15 02:21:44;;;;;;;;;;;;;;;;;;5115936;28;19922;-76
2022/03/15 02:24:10;;;;;;;;;;;;;;;;;;5115809;28;19915;-76
2022/03/15 02:26:35;;;;;;;;;;;;;;;;;;5115802;28;20334;-76
2022/03/15 02:29:00;;;;;;;;;;;;;;;;;;5115737;28;19959;-76
2022/03/15 02:31:26;;;;;;;;;;;;;;;;;;5106833;28;20297;-76
2022/03/15 02:33:51;;;;;;;;;;;;;;;;;;5094258;28;19999;-76
2022/03/15 02:36:17;;;;;;;;;;;;;;;;;;5095150;28;19916;-76
2022/03/15 02:38:43;;;;;;;;;;;;;;;;;;5095097;28;19912;-75
2022/03/15 02:41:08;;;;;;;;;;;;;;;;;;5095153;28;19916;-75
2022/03/15 02:43:33;;;;;;;;;;;;;;;;;;5111659;28;19930;-75
2022/03/15 02:45:59;;;;;;;;;;;;;;;;;;5114001;28;19916;-75
2022/03/15 02:48:24;;;;;;;;;;;;;;;;;;5115352;28;19916;-75
2022/03/15 02:50:49;;;;;;;;;;;;;;;;;;5115123;28;20002;-75
2022/03/15 02:53:16;;;;;;;;;;;;;;;;;;5115302;28;19915;-75
2022/03/15 02:55:42;;;;;;;;;;;;;;;;;;5114995;28;19981;-75
2022/03/15 02:58:07;;;;;;;;;;;;;;;;;;5114786;28;20377;-75
2022/03/15 03:00:32;;;;;;;;;;;;;;;;;;5115221;28;19916;-75
2022/03/15 03:02:59;;;;;;;;;;;;;;;;;;5114912;28;20331;-75
2022/03/15 03:05:24;;;;;;;;;;;;;;;;;;5114754;28;19916;-75
2022/03/15 03:07:50;;;;;;;;;;;;;;;;;;5115041;28;19961;-75
2022/03/15 03:10:16;;;;;;;;;;;;;;;;;;5114815;28;20011;-75
2022/03/15 03:12:44;;;;;;;;;;;;;;;;;;5114545;28;19965;-75
2022/03/15 03:15:13;;;;;;;;;;;;;;;;;;5114755;28;19916;-75
2022/03/15 03:17:42;;;;;;;;;;;;;;;;;;5115113;28;20010;-75
2022/03/15 03:20:12;;;;;;;;;;;;;;;;;;5114808;28;19923;-75
2022/03/15 03:22:38;;;;;;;;;;;;;;;;;;5114715;28;19923;-75
2022/03/15 03:25:04;;;;;;;;;;;;;;;;;;5113738;28;19915;-75
2022/03/15 03:27:29;;;;;;;;;;;;;;;;;;5112886;28;19948;-75
2022/03/15 03:29:58;;;;;;;;;;;;;;;;;;5114020;28;19916;-75
2022/03/15 03:32:23;;;;;;;;;;;;;;;;;;5114337;28;19920;-75
2022/03/15 03:34:49;;;;;;;;;;;;;;;;;;5114228;28;20007;-75
2022/03/15 03:37:14;;;;;;;;;;;;;;;;;;5114566;28;19915;-75
2022/03/15 03:39:40;;;;;;;;;;;;;;;;;;5114539;28;19971;-75
2022/03/15 03:42:05;;;;;;;;;;;;;;;;;;5113582;28;19952;-75
2022/03/15 03:44:33;;;;;;;;;;;;;;;;;;5114001;27;19926;-75
2022/03/15 03:46:58;;;;;;;;;;;;;;;;;;5114175;27;20014;-75
2022/03/15 03:49:24;;;;;;;;;;;;;;;;;;5114608;28;20420;-75
2022/03/15 03:51:49;;;;;;;;;;;;;;;;;;5113983;28;20031;-75
2022/03/15 03:54:15;;;;;;;;;;;;;;;;;;5112891;28;20010;-75
2022/03/15 03:56:40;;;;;;;;;;;;;;;;;;5113807;27;20401;-75
2022/03/15 03:59:07;;;;;;;;;;;;;;;;;;5114266;28;19924;-75
2022/03/15 04:01:32;;;;;;;;;;;;;;;;;;5114004;28;19922;-75
2022/03/15 04:04:05;;;;;;;;;;;;;;;;;;5114128;28;19942;-75
2022/03/15 04:06:30;;;;;;;;;;;;;;;;;;5113797;28;19915;-76
2022/03/15 04:08:56;;;;;;;;;;;;;;;;;;5114137;28;19926;-75
2022/03/15 04:11:21;;;;;;;;;;;;;;;;;;5114068;28;20361;-75
2022/03/15 04:13:47;;;;;;;;;;;;;;;;;;5113350;28;19915;-75
2022/03/15 04:16:12;;;;;;;;;;;;;;;;;;5113428;28;20361;-75
2022/03/15 04:18:40;;;;;;;;;;;;;;;;;;5114207;28;20301;-75
2022/03/15 04:21:05;;;;;;;;;;;;;;;;;;5114037;28;19920;-76
2022/03/15 04:23:31;;;;;;;;;;;;;;;;;;5113828;28;19916;-75
2022/03/15 04:25:57;;;;;;;;;;;;;;;;;;5113652;28;19915;-76
2022/03/15 04:28:22;;;;;;;;;;;;;;;;;;5103193;28;19920;-75
2022/03/15 04:30:48;;;;;;;;;;;;;;;;;;5097674;28;19926;-75
2022/03/15 04:33:14;;;;;;;;;;;;;;;;;;5113464;28;20432;-75
2022/03/15 04:35:40;;;;;;;;;;;;;;;;;;5107467;28;19916;-75
2022/03/15 04:38:05;;;;;;;;;;;;;;;;;;5093328;28;20224;-75
2022/03/15 04:40:31;;;;;;;;;;;;;;;;;;5092456;28;19916;-75
2022/03/15 04:42:59;;;;;;;;;;;;;;;;;;5102203;28;19920;-75
2022/03/15 04:45:25;;;;;;;;;;;;;;;;;;5105180;28;19916;-75
2022/03/15 04:47:50;;;;;;;;;;;;;;;;;;5093554;28;19923;-75
2022/03/15 04:50:17;;;;;;;;;;;;;;;;;;5092377;28;19920;-75
2022/03/15 04:52:42;;;;;;;;;;;;;;;;;;5093045;28;19916;-75
2022/03/15 04:55:08;;;;;;;;;;;;;;;;;;5092937;28;20258;-75
2022/03/15 04:57:33;;;;;;;;;;;;;;;;;;5095387;28;20028;-75
2022/03/15 04:59:59;;;;;;;;;;;;;;;;;;5096960;28;19923;-75
2022/03/15 05:02:24;;;;;;;;;;;;;;;;;;5096861;28;19923;-75
2022/03/15 05:04:51;;;;;;;;;;;;;;;;;;5097249;28;19938;-75
2022/03/15 05:07:17;;;;;;;;;;;;;;;;;;5096844;28;20340;-75
2022/03/15 05:12:27;;;;;;;;;;;;;;;;;;5101906;28;19919;-76
2022/03/15 05:14:52;;;;;;;;;;;;;;;;;;5115993;28;20010;-75
2022/03/15 05:17:19;;;;;;;;;;;;;;;;;;5117114;27;19915;-75
2022/03/15 05:19:45;;;;;;;;;;;;;;;;;;5117120;28;20293;-76
2022/03/15 05:22:10;;;;;;;;;;;;;;;;;;5116729;28;19915;-75
2022/03/15 05:24:36;;;;;;;;;;;;;;;;;;5115708;28;19919;-75
2022/03/15 05:27:01;;;;;;;;;;;;;;;;;;5116828;28;19923;-75
2022/03/15 05:29:26;;;;;;;;;;;;;;;;;;5116459;28;19961;-75
2022/03/15 05:31:51;;;;;;;;;;;;;;;;;;5115867;28;19963;-75
2022/03/15 05:34:17;;;;;;;;;;;;;;;;;;5115558;28;19916;-77
2022/03/15 05:36:43;;;;;;;;;;;;;;;;;;5116851;28;19916;-77
2022/03/15 05:39:08;;;;;;;;;;;;;;;;;;5116736;28;19915;-76
2022/03/15 05:41:35;;;;;;;;;;;;;;;;;;5116702;28;20358;-76
2022/03/15 05:44:00;;;;;;;;;;;;;;;;;;5115612;28;19915;-76
2022/03/15 05:46:25;;;;;;;;;;;;;;;;;;5116449;27;20014;-76
2022/03/15 05:48:52;;;;;;;;;;;;;;;;;;5116151;28;19916;-75
2022/03/15 05:51:17;;;;;;;;;;;;;;;;;;5115709;28;19927;-75
2022/03/15 05:53:42;;;;;;;;;;;;;;;;;;5116321;28;20378;-76
2022/03/15 05:56:08;;;;;;;;;;;;;;;;;;5116414;28;19959;-76
2022/03/15 05:58:33;;;;;;;;;;;;;;;;;;5115963;28;20320;-76
2022/03/15 06:00:59;;;;;;;;;;;;;;;;;;5115126;28;20357;-77
2022/03/15 06:03:24;;;;;;;;;;;;;;;;;;5116006;28;19916;-77
2022/03/15 06:05:51;;;;;;;;;;;;;;;;;;5116309;28;20006;-77
2022/03/15 06:08:17;;;;;;;;;;;;;;;;;;5115490;28;19955;-77
2022/03/15 06:10:43;;;;;;;;;;;;;;;;;;5116100;28;19916;-77
2022/03/15 06:13:08;;;;;;;;;;;;;;;;;;5116009;28;19916;-78
2022/03/15 06:15:33;;;;;;;;;;;;;;;;;;5114406;28;20086;-78
2022/03/15 06:18:01;;;;;;;;;;;;;;;;;;5115161;28;20011;-76
2022/03/15 06:20:27;;;;;;;;;;;;;;;;;;5115880;27;19919;-76
2022/03/15 06:22:56;;;;;;;;;;;;;;;;;;5115852;28;20637;-75
2022/03/15 06:25:25;;;;;;;;;;;;;;;;;;5115864;28;19923;-75
2022/03/15 06:27:50;;;;;;;;;;;;;;;;;;5115780;28;19916;-75
2022/03/15 06:30:16;;;;;;;;;;;;;;;;;;5115483;28;19919;-76
2022/03/15 06:32:41;;;;;;;;;;;;;;;;;;5115245;28;19935;-77
2022/03/15 06:35:07;;;;;;;;;;;;;;;;;;5115769;28;19915;-76
2022/03/15 06:37:39;;;;;;;;;;;;;;;;;;5115165;28;20387;-76
2022/03/15 06:40:05;;;;;;;;;;;;;;;;;;5115512;28;19916;-77
2022/03/15 06:42:31;;;;;;;;;;;;;;;;;;5115568;28;19922;-77
2022/03/15 06:44:57;;;;;;;;;;;;;;;;;;5124772;27;19969;-76
2022/03/15 06:47:22;;;;;;;;;;;;;;;;;;5126958;27;19915;-75
2022/03/15 06:49:48;;;;;;;;;;;;;;;;;;5099925;28;19916;-76
2022/03/15 06:52:14;;;;;;;;;;;;;;;;;;5094809;28;20441;-77
2022/03/15 06:54:39;;;;;;;;;;;;;;;;;;5093164;28;20397;-76
2022/03/15 06:57:05;;;;;;;;;;;;;;;;;;5106720;28;19923;-77
2022/03/15 06:59:30;;;;;;;;;;;;;;;;;;5115269;28;19989;-77
2022/03/15 07:01:58;;;;;;;;;;;;;;;;;;5108111;28;19927;-77
2022/03/15 07:04:23;;;;;;;;;;;;;;;;;;5107522;28;19915;-76
2022/03/15 07:06:48;;;;;;;;;;;;;;;;;;5114741;28;19915;-75
2022/03/15 07:09:14;;;;;;;;;;;;;;;;;;5103061;28;19916;-74
2022/03/15 07:11:39;;;;;;;;;;;;;;;;;;5105265;28;20373;-75
2022/03/15 07:14:06;;;;;;;;;;;;;;;;;;5114405;28;20255;-75
2022/03/15 07:16:31;;;;;;;;;;;;;;;;;;5112481;28;19937;-75
2022/03/15 07:18:57;;;;;;;;;;;;;;;;;;5113752;28;19916;-76
2022/03/15 07:21:24;;;;;;;;;;;;;;;;;;5113503;28;20015;-75
2022/03/15 07:23:49;;;;;;;;;;;;;;;;;;5114293;28;19955;-76
2022/03/15 07:26:14;;;;;;;;;;;;;;;;;;5113250;28;20327;-76
2022/03/15 07:28:40;;;;;;;;;;;;;;;;;;5113081;28;19927;-75
2022/03/15 07:31:05;;;;;;;;;;;;;;;;;;5114288;28;19963;-76
2022/03/15 07:33:31;;;;;;;;;;;;;;;;;;5114233;28;19919;-76
2022/03/15 07:36:01;;;;;;;;;;;;;;;;;;5114349;28;20341;-76
2022/03/15 07:38:26;;;;;;;;;;;;;;;;;;5114517;28;19920;-77
2022/03/15 07:40:52;;;;;;;;;;;;;;;;;;5114630;28;19993;-77
2022/03/15 07:43:22;;;;;;;;;;;;;;;;;;5113296;28;20327;-77
2022/03/15 07:45:47;;;;;;;;;;;;;;;;;;5110331;28;19990;-77
2022/03/15 07:48:12;;;;;;;;;;;;;;;;;;5112896;28;20350;-77
2022/03/15 07:50:37;;;;;;;;;;;;;;;;;;5103842;28;19916;-77
2022/03/15 07:53:03;;;;;;;;;;;;;;;;;;5093579;28;20301;-79
2022/03/15 07:55:28;;;;;;;;;;;;;;;;;;5104228;28;19922;-76
2022/03/15 07:57:53;;;;;;;;;;;;;;;;;;5115754;28;20262;-77
2022/03/15 08:00:18;;;;;;;;;;;;;;;;;;5114101;28;20285;-76
2022/03/15 08:02:44;;;;;;;;;;;;;;;;;;5114845;28;20364;-78
2022/03/15 08:05:09;;;;;;;;;;;;;;;;;;5113477;28;19915;-78
2022/03/15 08:07:36;;;;;;;;;;;;;;;;;;5114836;28;19916;-76
2022/03/15 08:10:07;;;;;;;;;;;;;;;;;;5112873;28;19952;-76
2022/03/15 08:12:32;;;;;;;;;;;;;;;;;;5113473;28;20444;-76
2022/03/15 08:14:57;;;;;;;;;;;;;;;;;;5119670;28;20006;-75
2022/03/15 08:17:23;;;;;;;;;;;;;;;;;;5134527;27;19922;-75
2022/03/15 08:19:48;;;;;;;;;;;;;;;;;;5116193;27;19946;-75
2022/03/15 08:22:13;;;;;;;;;;;;;;;;;;5096727;27;20370;-77
2022/03/15 08:24:39;;;;;;;;;;;;;;;;;;5093770;28;19916;-76
2022/03/15 08:27:04;;;;;;;;;;;;;;;;;;5093728;28;19916;-75
2022/03/15 08:29:31;;;;;;;;;;;;;;;;;;5093421;28;20386;-76
2022/03/15 08:31:57;;;;;;;;;;;;;;;;;;5095385;28;20024;-76
2022/03/15 08:34:23;;;;;;;;;;;;;;;;;;5095862;28;20274;-76
2022/03/15 08:36:53;;;;;;;;;;;;;;;;;;5096688;28;19923;-77
2022/03/15 08:39:21;;;;;;;;;;;;;;;;;;5097124;28;19923;-77
2022/03/15 08:41:49;;;;;;;;;;;;;;;;;;5096568;28;19927;-76
2022/03/15 08:44:14;;;;;;;;;;;;;;;;;;5096655;28;19966;-78
2022/03/15 08:46:40;;;;;;;;;;;;;;;;;;5136520;27;19920;-78
2022/03/15 08:49:09;;;;;;;;;;;;;;;;;;5138073;27;19966;-78
2022/03/15 08:51:35;;;;;;;;;;;;;;;;;;5137855;27;19920;-77
2022/03/15 08:54:00;;;;;;;;;;;;;;;;;;5115157;27;20454;-77
2022/03/15 08:56:26;;;;;;;;;;;;;;;;;;5106407;28;19928;-78
2022/03/15 08:58:51;;;;;;;;;;;;;;;;;;5109524;28;19915;-78
2022/03/15 09:01:16;;;;;;;;;;;;;;;;;;5107267;28;20103;-77
2022/03/15 09:03:42;;;;;;;;;;;;;;;;;;5105014;28;19923;-75
2022/03/15 09:06:07;;;;;;;;;;;;;;;;;;5096993;28;19923;-76
2022/03/15 09:08:32;;;;;;;;;;;;;;;;;;5096859;28;19998;-76
2022/03/15 09:10:58;;;;;;;;;;;;;;;;;;5096568;28;19923;-77
2022/03/15 09:13:23;;;;;;;;;;;;;;;;;;5111889;28;19999;-76
2022/03/15 09:15:49;;;;;;;;;;;;;;;;;;5117226;28;20455;-76
2022/03/15 09:18:15;;;;;;;;;;;;;;;;;;5117299;28;20006;-76
2022/03/15 09:20:42;;;;;;;;;;;;;;;;;;5116991;28;19916;-74
2022/03/15 09:23:08;;;;;;;;;;;;;;;;;;5116951;28;19939;-75
2022/03/15 09:25:36;;;;;;;;;;;;;;;;;;5116962;28;19916;-76
2022/03/15 09:28:01;;;;;;;;;;;;;;;;;;5116544;28;19939;-75
2022/03/15 09:30:30;;;;;;;;;;;;;;;;;;5116493;28;20266;-74
2022/03/15 09:32:55;;;;;;;;;;;;;;;;;;5116755;28;19926;-73
2022/03/15 09:35:21;;;;;;;;;;;;;;;;;;5116798;28;20274;-73
2022/03/15 09:37:48;;;;;;;;;;;;;;;;;;5116427;28;19978;-74
2022/03/15 09:40:17;;;;;;;;;;;;;;;;;;5111606;28;19915;-75
2022/03/15 09:42:44;;;;;;;;;;;;;;;;;;5104261;28;20356;-74
2022/03/15 09:45:13;;;;;;;;;;;;;;;;;;5106525;27;19951;-75
2022/03/15 09:47:40;;;;;;;;;;;;;;;;;;5106585;28;19963;-76
2022/03/15 09:50:06;;;;;;;;;;;;;;;;;;5104427;28;19916;-75
2022/03/15 09:52:32;;;;;;;;;;;;;;;;;;5112444;28;19926;-75
2022/03/15 09:54:57;;;;;;;;;;;;;;;;;;5116819;28;19915;-75
2022/03/15 09:57:23;;;;;;;;;;;;;;;;;;5115105;28;19920;-75
2022/03/15 09:59:52;;;;;;;;;;;;;;;;;;5116480;28;19916;-75
2022/03/15 10:02:24;;;;;;;;;;;;;;;;;;5116346;28;19981;-75
2022/03/15 10:04:49;;;;;;;;;;;;;;;;;;5116020;28;19923;-74
2022/03/15 10:07:15;;;;;;;;;;;;;;;;;;5097767;28;19915;-75
2022/03/15 10:09:40;;;;;;;;;;;;;;;;;;5115955;27;20396;-75
2022/03/15 10:12:06;;;;;;;;;;;;;;;;;;5115891;28;20129;-75
2022/03/15 10:14:48;;;;;;;;;;;;;;;;;;5116186;28;19922;-75
2022/03/15 10:17:14;;;;;;;;;;;;;;;;;;5116112;27;20323;-75
2022/03/15 10:19:49;;;;;;;;;;;;;;;;;;5116026;28;19923;-77
2022/03/15 10:22:19;;;;;;;;;;;;;;;;;;5113254;28;19969;-75
2022/03/15 10:24:45;;;;;;;;;;;;;;;;;;5115886;28;19969;-76
2022/03/15 10:27:11;;;;;;;;;;;;;;;;;;5113745;28;19915;-76
2022/03/15 10:29:36;;;;;;;;;;;;;;;;;;5107217;28;20300;-75
2022/03/15 10:32:04;;;;;;;;;;;;;;;;;;5094907;28;19920;-75
2022/03/15 10:34:29;;;;;;;;;;;;;;;;;;5095223;28;20297;-74
2022/03/15 10:36:56;;;;;;;;;;;;;;;;;;5097165;28;19916;-74
2022/03/15 10:39:22;;;;;;;;;;;;;;;;;;5095099;28;19916;-76
2022/03/15 10:41:52;;;;;;;;;;;;;;;;;;5105714;28;19939;-77
2022/03/15 10:44:24;;;;;;;;;;;;;;;;;;5095133;28;19927;-74
2022/03/15 10:47:00;;;;;;;;;;;;;;;;;;5094970;28;19916;-74
2022/03/15 10:49:25;;;;;;;;;;;;;;;;;;5094809;28;20346;-74
2022/03/15 10:51:51;;;;;;;;;;;;;;;;;;5095557;28;19943;-74
2022/03/15 10:54:17;;;;;;;;;;;;;;;;;;5094087;28;20366;-75
2022/03/15 10:56:50;;;;;;;;;;;;;;;;;;5093748;28;19916;-75
2022/03/15 10:59:16;;;;;;;;;;;;;;;;;;5094693;28;19916;-74
2022/03/15 11:01:41;;;;;;;;;;;;;;;;;;5094562;28;19938;-75
2022/03/15 11:04:10;;;;;;;;;;;;;;;;;;5094599;28;19930;-74
2022/03/15 11:06:38;;;;;;;;;;;;;;;;;;5094303;28;19920;-74
2022/03/15 11:09:20;;;;;;;;;;;;;;;;;;5094630;28;19961;-75
2022/03/15 11:11:47;;;;;;;;;;;;;;;;;;5092919;28;20001;-75
2022/03/15 11:14:13;;;;;;;;;;;;;;;;;;5094498;28;20292;-75
2022/03/15 11:16:38;;;;;;;;;;;;;;;;;;5094566;28;20327;-75
2022/03/15 11:19:04;;;;;;;;;;;;;;;;;;5094450;28;19966;-75
2022/03/15 11:21:33;;;;;;;;;;;;;;;;;;5105635;28;19959;-75
2022/03/15 11:23:59;;;;;;;;;;;;;;;;;;5114573;28;19916;-74
2022/03/15 11:26:27;;;;;;;;;;;;;;;;;;5114588;28;19969;-75
2022/03/15 11:28:53;;;;;;;;;;;;;;;;;;5114609;28;19915;-75
2022/03/15 11:31:18;;;;;;;;;;;;;;;;;;5114272;28;19927;-75
2022/03/15 11:33:45;;;;;;;;;;;;;;;;;;5114534;28;19915;-74
2022/03/15 11:36:12;;;;;;;;;;;;;;;;;;5096022;28;20411;-76
2022/03/15 11:38:38;;;;;;;;;;;;;;;;;;5114514;28;19916;-73
2022/03/15 11:41:03;;;;;;;;;;;;;;;;;;5114668;28;20297;-73
2022/03/15 11:43:39;;;;;;;;;;;;;;;;;;5113508;28;19916;-74
2022/03/15 11:46:16;;;;;;;;;;;;;;;;;;5114524;28;19916;-74
2022/03/15 11:48:48;;;;;;;;;;;;;;;;;;5114387;28;20247;-73
2022/03/15 11:51:20;;;;;;;;;;;;;;;;;;5114042;28;19916;-73
2022/03/15 11:54:08;;;;;;;;;;;;;;;;;;5112844;28;19923;-73
2022/03/15 11:57:13;;;;;;;;;;;;;;;;;;5113171;28;19915;-73
2022/03/15 11:59:48;;;;;;;;;;;;;;;;;;5071396;28;19917;-73
2022/03/15 12:02:27;;;;;;;;;;;;;;;;;;5109265;28;19915;-72
2022/03/15 12:04:52;;;;;;;;;;;;;;;;;;5114430;28;19988;-72
2022/03/15 12:07:27;;;;;;;;;;;;;;;;;;5119567;28;19920;-72
2022/03/15 12:09:57;;;;;;;;;;;;;;;;;;5121042;27;19916;-74
2022/03/15 12:12:29;;;;;;;;;;;;;;;;;;5120838;27;20438;-74
2022/03/15 12:14:54;;;;;;;;;;;;;;;;;;5120911;27;19951;-76
2022/03/15 12:17:20;;;;;;;;;;;;;;;;;;5121238;27;19915;-76
2022/03/15 12:19:49;;;;;;;;;;;;;;;;;;5120525;27;20070;-75
2022/03/15 12:22:23;;;;;;;;;;;;;;;;;;5120977;27;19916;-75
2022/03/15 12:25:00;;;;;;;;;;;;;;;;;;5120818;27;20361;-75
2022/03/15 12:27:26;;;;;;;;;;;;;;;;;;5122027;27;20538;-74
2022/03/15 12:29:51;;;;;;;;;;;;;;;;;;5121121;27;20003;-74
2022/03/15 12:32:19;;;;;;;;;;;;;;;;;;5120758;27;20372;-74
2022/03/15 12:34:49;;;;;;;;;;;;;;;;;;5120946;27;19922;-74
2022/03/15 12:37:14;;;;;;;;;;;;;;;;;;5119265;28;20014;-75
2022/03/15 12:39:39;;;;;;;;;;;;;;;;;;5120676;27;19958;-74
2022/03/15 12:42:12;;;;;;;;;;;;;;;;;;5120652;27;20017;-74
2022/03/15 12:44:45;;;;;;;;;;;;;;;;;;5117727;27;20366;-73
2022/03/15 12:47:10;;;;;;;;;;;;;;;;;;5117837;28;19916;-73
2022/03/15 12:49:36;;;;;;;;;;;;;;;;;;5109106;27;19923;-73
2022/03/15 12:52:15;;;;;;;;;;;;;;;;;;5120774;27;19951;-73
2022/03/15 12:54:43;;;;;;;;;;;;;;;;;;5120657;27;19958;-72
2022/03/15 12:57:14;;;;;;;;;;;;;;;;;;5116299;27;20323;-72
2022/03/15 12:59:39;;;;;;;;;;;;;;;;;;5110779;27;19923;-72
2022/03/15 13:02:06;;;;;;;;;;;;;;;;;;5098862;28;20293;-73
2022/03/15 13:04:32;;;;;;;;;;;;;;;;;;5100033;28;20423;-73
2022/03/15 13:07:02;;;;;;;;;;;;;;;;;;5103863;28;19915;-73
2022/03/15 13:09:27;;;;;;;;;;;;;;;;;;5108740;28;19924;-72
2022/03/15 13:11:55;;;;;;;;;;;;;;;;;;5117086;28;19962;-72
2022/03/15 13:14:24;;;;;;;;;;;;;;;;;;5118240;27;19923;-73
2022/03/15 13:16:50;;;;;;;;;;;;;;;;;;5118961;27;19923;-73
2022/03/15 13:19:26;;;;;;;;;;;;;;;;;;5117108;28;20354;-73
2022/03/15 13:21:52;;;;;;;;;;;;;;;;;;5117232;28;19916;-72
2022/03/15 13:24:22;;;;;;;;;;;;;;;;;;5117251;28;20483;-73
2022/03/15 13:26:49;;;;;;;;;;;;;;;;;;5115940;28;20396;-73
2022/03/15 13:29:14;;;;;;;;;;;;;;;;;;5116766;28;20350;-73
2022/03/15 13:31:40;;;;;;;;;;;;;;;;;;5116834;27;19919;-73
2022/03/15 13:34:08;;;;;;;;;;;;;;;;;;5116946;28;19916;-72
2022/03/15 13:36:34;;;;;;;;;;;;;;;;;;5117092;28;19916;-72
2022/03/15 13:39:05;;;;;;;;;;;;;;;;;;5117266;28;20284;-72
2022/03/15 13:41:40;;;;;;;;;;;;;;;;;;5115694;28;20010;-72
2022/03/15 13:44:09;;;;;;;;;;;;;;;;;;5120253;27;19941;-73
2022/03/15 13:46:35;;;;;;;;;;;;;;;;;;5101856;27;19916;-72
2022/03/15 13:49:14;;;;;;;;;;;;;;;;;;5114627;28;20394;-72
2022/03/15 13:51:40;;;;;;;;;;;;;;;;;;5123486;27;20305;-73
2022/03/15 13:54:10;;;;;;;;;;;;;;;;;;5116555;28;19916;-73
2022/03/15 13:56:39;;;;;;;;;;;;;;;;;;5111579;28;19961;-73
2022/03/15 13:59:06;;;;;;;;;;;;;;;;;;5108202;28;19966;-73
2022/03/15 14:01:35;;;;;;;;;;;;;;;;;;5116322;28;19984;-73
2022/03/15 14:04:03;;;;;;;;;;;;;;;;;;5100842;28;19998;-72
2022/03/15 14:06:33;;;;;;;;;;;;;;;;;;5095788;28;19966;-72
2022/03/15 14:08:58;;;;;;;;;;;;;;;;;;5096074;28;19916;-73
2022/03/15 14:11:28;;;;;;;;;;;;;;;;;;5095642;28;19920;-73
2022/03/15 14:13:55;;;;;;;;;;;;;;;;;;5096028;28;20357;-73
2022/03/15 14:16:30;;;;;;;;;;;;;;;;;;5113613;28;19916;-72
2022/03/15 14:18:56;;;;;;;;;;;;;;;;;;5116246;28;19919;-73
2022/03/15 14:21:21;;;;;;;;;;;;;;;;;;5116403;28;20323;-73
2022/03/15 14:23:53;;;;;;;;;;;;;;;;;;5106935;28;20000;-72
2022/03/15 14:26:27;;;;;;;;;;;;;;;;;;5106735;28;19916;-73
2022/03/15 14:28:56;;;;;;;;;;;;;;;;;;5105151;28;20520;-73
2022/03/15 14:31:28;;;;;;;;;;;;;;;;;;5115723;28;19920;-73
2022/03/15 14:34:00;;;;;;;;;;;;;;;;;;5109661;28;20350;-73
2022/03/15 14:36:33;;;;;;;;;;;;;;;;;;5094255;28;20374;-73
2022/03/15 14:39:14;;;;;;;;;;;;;;;;;;5095718;28;20320;-73
2022/03/15 14:41:42;;;;;;;;;;;;;;;;;;5096775;28;19925;-73
2022/03/15 14:44:09;;;;;;;;;;;;;;;;;;5115278;28;20007;-73
2022/03/15 14:46:38;;;;;;;;;;;;;;;;;;5115643;28;19916;-73
2022/03/15 14:49:07;;;;;;;;;;;;;;;;;;5116017;28;20319;-73
2022/03/15 14:51:33;;;;;;;;;;;;;;;;;;5115649;27;19971;-73
2022/03/15 14:54:00;;;;;;;;;;;;;;;;;;5115733;28;19916;-73
2022/03/15 14:56:26;;;;;;;;;;;;;;;;;;5115490;28;19916;-72
2022/03/15 14:58:52;;;;;;;;;;;;;;;;;;5115253;28;19938;-73
2022/03/15 15:01:17;;;;;;;;;;;;;;;;;;5115309;28;19920;-73
2022/03/15 15:03:45;;;;;;;;;;;;;;;;;;5113881;28;20262;-73
2022/03/15 15:06:13;;;;;;;;;;;;;;;;;;5115484;28;19920;-73
2022/03/15 15:08:38;;;;;;;;;;;;;;;;;;5115412;28;19948;-73
2022/03/15 15:11:04;;;;;;;;;;;;;;;;;;5114122;28;19947;-73
2022/03/15 15:13:29;;;;;;;;;;;;;;;;;;5114190;28;19916;-73
2022/03/15 15:15:55;;;;;;;;;;;;;;;;;;5115200;28;19960;-73
2022/03/15 15:18:22;;;;;;;;;;;;;;;;;;5115071;28;19969;-73
2022/03/15 15:20:49;;;;;;;;;;;;;;;;;;5099314;28;20429;-73
2022/03/15 15:23:14;;;;;;;;;;;;;;;;;;5099201;28;19916;-73
2022/03/15 15:25:41;;;;;;;;;;;;;;;;;;5105703;28;20414;-73
2022/03/15 15:28:12;;;;;;;;;;;;;;;;;;5112031;28;19916;-74
2022/03/15 15:30:39;;;;;;;;;;;;;;;;;;5104898;28;20053;-73
2022/03/15 15:33:06;;;;;;;;;;;;;;;;;;5106635;28;19926;-73
2022/03/15 15:35:33;;;;;;;;;;;;;;;;;;5107541;28;19923;-73
2022/03/15 15:37:58;;;;;;;;;;;;;;;;;;5114398;28;19922;-72
2022/03/15 15:40:25;;;;;;;;;;;;;;;;;;5114001;28;19911;-73
2022/03/15 15:42:53;;;;;;;;;;;;;;;;;;5113406;28;19998;-73
2022/03/15 15:45:19;;;;;;;;;;;;;;;;;;5103494;28;20018;-74
2022/03/15 15:47:45;;;;;;;;;;;;;;;;;;5094045;28;19923;-74
2022/03/15 15:50:13;;;;;;;;;;;;;;;;;;5093937;28;19916;-74
2022/03/15 15:52:40;;;;;;;;;;;;;;;;;;5098959;28;19920;-74
2022/03/15 15:55:06;;;;;;;;;;;;;;;;;;5100691;28;19916;-74
2022/03/15 15:57:32;;;;;;;;;;;;;;;;;;5093780;28;20007;-75
2022/03/15 16:00:01;;;;;;;;;;;;;;;;;;5093705;28;19916;-75
2022/03/15 16:02:26;;;;;;;;;;;;;;;;;;5093086;28;19916;-74
2022/03/15 16:04:52;;;;;;;;;;;;;;;;;;5094871;28;19916;-75
2022/03/15 16:07:45;;;;;;;;;;;;;;;;;;5076801;28;19959;-75
2022/03/15 16:10:11;;;;;;;;;;;;;;;;;;5093468;28;19916;-75
2022/03/15 16:12:36;;;;;;;;;;;;;;;;;;5102795;28;20328;-75
2022/03/15 16:15:02;;;;;;;;;;;;;;;;;;5111879;28;19916;-75
2022/03/15 16:17:28;;;;;;;;;;;;;;;;;;5112917;28;19939;-75
2022/03/15 16:19:54;;;;;;;;;;;;;;;;;;5114338;28;19919;-74
2022/03/15 16:22:19;;;;;;;;;;;;;;;;;;5114089;28;20438;-74
2022/03/15 16:24:45;;;;;;;;;;;;;;;;;;5113993;28;19916;-75
2022/03/15 16:27:11;;;;;;;;;;;;;;;;;;5114158;28;20273;-75
2022/03/15 16:29:36;;;;;;;;;;;;;;;;;;5113837;28;19916;-75
2022/03/15 16:32:01;;;;;;;;;;;;;;;;;;5095336;28;20034;-75
2022/03/15 16:34:27;;;;;;;;;;;;;;;;;;5113663;28;20270;-74
2022/03/15 16:36:54;;;;;;;;;;;;;;;;;;5114417;28;19916;-74
2022/03/15 16:39:21;;;;;;;;;;;;;;;;;;5114422;28;20358;-74
2022/03/15 16:41:47;;;;;;;;;;;;;;;;;;5114233;28;19985;-75
2022/03/15 16:44:12;;;;;;;;;;;;;;;;;;5113064;28;20369;-75
2022/03/15 16:46:37;;;;;;;;;;;;;;;;;;5113210;28;20010;-74